createdAt,value
2018-06-17T00:00:29.497Z,14.54
2018-06-17T00:03:01.528Z,14.53
2018-06-17T00:05:36.469Z,14.51
2018-06-17T00:10:42.678Z,14.52
2018-06-17T00:13:11.633Z,14.50
2018-06-17T00:15:40.630Z,14.50
2018-06-17T00:18:13.506Z,14.49
2018-06-17T00:20:48.656Z,14.48
2018-06-17T00:23:26.282Z,14.45
2018-06-17T00:26:00.847Z,14.47
2018-06-17T00:28:29.911Z,14.46
2018-06-17T00:30:58.886Z,14.46
2018-06-17T00:33:28.187Z,14.46
2018-06-17T00:36:00.915Z,14.45
2018-06-17T00:38:38.435Z,14.45
2018-06-17T00:41:13.564Z,14.46
2018-06-17T00:43:49.144Z,14.45
2018-06-17T00:46:18.036Z,14.43
2018-06-17T00:48:47.934Z,14.46
2018-06-17T00:51:16.963Z,14.44
2018-06-17T00:56:28.534Z,14.40
2018-06-17T00:59:04.381Z,14.43
2018-06-17T01:01:36.987Z,14.43
2018-06-17T01:04:05.983Z,14.42
2018-06-17T01:06:34.970Z,14.42
2018-06-17T01:09:04.116Z,14.41
2018-06-17T01:11:34.752Z,14.41
2018-06-17T01:14:08.955Z,14.41
2018-06-17T01:16:40.896Z,14.41
2018-06-17T01:19:13.871Z,14.40
2018-06-17T01:21:42.914Z,14.41
2018-06-17T01:24:11.839Z,14.41
2018-06-17T01:26:40.858Z,14.41
2018-06-17T01:29:13.095Z,14.39
2018-06-17T01:31:49.347Z,14.39
2018-06-17T01:34:22.157Z,14.38
2018-06-17T01:36:54.492Z,14.36
2018-06-17T01:39:26.133Z,14.37
2018-06-17T01:41:55.080Z,14.37
2018-06-17T01:44:23.975Z,14.37
2018-06-17T01:46:52.966Z,14.38
2018-06-17T01:49:29.852Z,14.38
2018-06-17T01:52:02.456Z,14.37
2018-06-17T01:54:34.495Z,14.36
2018-06-17T01:57:06.576Z,14.35
2018-06-17T01:59:45.549Z,14.35
2018-06-17T02:02:21.978Z,14.37
2018-06-17T02:04:58.678Z,14.36
2018-06-17T02:07:32.677Z,14.36
2018-06-17T02:10:06.647Z,14.35
2018-06-17T02:12:35.742Z,14.34
2018-06-17T02:15:09.125Z,14.35
2018-06-17T02:17:49.824Z,14.35
2018-06-17T02:20:21.866Z,14.35
2018-06-17T02:22:54.131Z,14.35
2018-06-17T02:25:23.025Z,14.32
2018-06-17T02:27:51.926Z,14.36
2018-06-17T02:30:20.782Z,14.36
2018-06-17T02:32:50.114Z,14.34
2018-06-17T02:35:21.259Z,14.34
2018-06-17T02:37:57.786Z,14.32
2018-06-17T02:40:30.841Z,14.31
2018-06-17T02:43:08.300Z,14.29
2018-06-17T02:45:45.478Z,14.26
2018-06-17T02:48:19.398Z,14.23
2018-06-17T02:50:53.503Z,14.20
2018-06-17T02:53:28.398Z,14.15
2018-06-17T02:55:58.210Z,14.14
2018-06-17T02:58:36.821Z,14.10
2018-06-17T03:09:43.007Z,14.01
2018-06-17T03:12:11.869Z,13.98
2018-06-17T03:14:40.812Z,13.99
2018-06-17T03:28:36.281Z,13.97
2018-06-17T03:31:10.323Z,13.96
2018-06-17T03:33:45.110Z,13.97
2018-06-17T03:36:28.328Z,14.01
2018-06-17T03:39:04.859Z,14.01
2018-06-17T03:47:17.368Z,14.00
2018-06-17T03:50:01.004Z,13.98
2018-06-17T03:52:29.990Z,13.96
2018-06-17T03:54:58.947Z,13.97
2018-06-17T03:57:28.008Z,13.97
2018-06-17T04:00:06.211Z,13.95
2018-06-17T04:05:21.235Z,13.94
2018-06-17T04:07:58.609Z,13.90
2018-06-17T04:10:40.437Z,13.88
2018-06-17T04:13:09.579Z,13.88
2018-06-17T04:15:38.808Z,13.86
2018-06-17T04:18:08.681Z,13.82
2018-06-17T04:32:49.347Z,13.72
2018-06-17T04:35:18.310Z,13.71
2018-06-17T04:37:47.260Z,13.70
2018-06-17T05:01:37.410Z,13.67
2018-06-17T05:04:06.486Z,13.73
2018-06-17T05:06:35.504Z,13.77
2018-06-17T05:09:06.624Z,13.81
2018-06-17T05:29:52.029Z,13.99
2018-06-17T05:32:20.947Z,14.01
2018-06-17T05:34:49.918Z,14.02
2018-06-17T05:46:26.922Z,14.08
2018-06-17T05:48:56.262Z,14.08
2018-06-17T05:51:25.313Z,14.07
2018-06-17T05:53:54.690Z,14.08
2018-06-17T06:08:41.554Z,14.19
2018-06-17T06:11:10.826Z,14.21
2018-06-17T06:13:39.762Z,14.23
2018-06-17T06:16:09.040Z,14.23
2018-06-17T06:30:37.945Z,14.28
2018-06-17T06:33:06.878Z,14.32
2018-06-17T06:35:35.884Z,14.36
2018-06-17T06:41:06.168Z,14.43
2018-06-17T06:48:49.583Z,14.46
2018-06-17T06:54:05.624Z,14.63
2018-06-17T06:56:50.072Z,14.68
2018-06-17T06:59:22.244Z,14.76
2018-06-17T07:02:06.000Z,14.82
2018-06-17T07:04:46.558Z,14.87
2018-06-17T07:07:26.404Z,14.90
2018-06-17T07:10:12.776Z,14.96
2018-06-17T07:12:41.835Z,15.01
2018-06-17T07:15:17.355Z,15.08
2018-06-17T07:18:08.731Z,15.15
2018-06-17T07:32:12.605Z,15.36
2018-06-17T07:34:42.205Z,15.38
2018-06-17T07:37:12.725Z,15.40
2018-06-17T08:11:14.107Z,15.33
2018-06-17T08:13:45.687Z,15.36
2018-06-17T08:16:14.966Z,15.39
2018-06-17T08:18:46.655Z,15.41
2018-06-17T08:21:22.555Z,15.47
2018-06-17T08:26:58.308Z,15.46
2018-06-17T08:30:13.298Z,15.34
2018-06-17T08:32:50.737Z,15.33
2018-06-17T08:35:29.957Z,15.29
2018-06-17T08:38:13.894Z,15.33
2018-06-17T09:10:32.802Z,15.66
2018-06-17T09:13:02.566Z,15.64
2018-06-17T09:15:31.638Z,15.65
2018-06-17T09:18:03.850Z,15.64
2018-06-17T09:27:29.522Z,15.80
2018-06-17T09:29:59.852Z,15.84
2018-06-17T09:32:33.577Z,15.87
2018-06-17T09:35:06.646Z,15.92
2018-06-17T09:37:45.940Z,15.94
2018-06-17T09:43:14.794Z,15.96
2018-06-17T09:45:43.937Z,15.98
2018-06-17T09:48:13.851Z,15.98
2018-06-17T09:51:01.555Z,15.99
2018-06-17T10:05:37.690Z,15.97
2018-06-17T10:08:06.739Z,16.01
2018-06-17T10:10:54.869Z,16.02
2018-06-17T10:22:32.420Z,16.08
2018-06-17T10:25:01.833Z,16.13
2018-06-17T10:27:31.197Z,16.19
2018-06-17T10:42:11.574Z,16.42
2018-06-17T10:44:41.031Z,16.46
2018-06-17T10:47:10.217Z,16.51
2018-06-17T11:02:01.033Z,16.64
2018-06-17T11:04:30.204Z,16.69
2018-06-17T11:06:59.853Z,16.73
2018-06-17T11:21:39.826Z,16.92
2018-06-17T11:24:08.859Z,16.99
2018-06-17T11:26:39.015Z,17.02
2018-06-17T11:41:20.573Z,17.22
2018-06-17T11:43:49.521Z,17.26
2018-06-17T11:46:19.922Z,17.32
2018-06-17T12:03:57.526Z,17.66
2018-06-17T12:06:26.662Z,17.72
2018-06-17T12:08:56.175Z,17.74
2018-06-17T12:20:36.333Z,17.63
2018-06-17T12:23:05.427Z,17.61
2018-06-17T12:25:34.512Z,17.61
2018-06-17T12:28:05.819Z,17.61
2018-06-17T12:43:23.972Z,17.55
2018-06-17T12:46:08.772Z,17.55
2018-06-17T13:06:42.822Z,17.33
2018-06-17T13:09:13.016Z,17.36
2018-06-17T13:26:59.966Z,17.11
2018-06-17T13:29:32.939Z,17.04
2018-06-17T13:32:02.203Z,16.96
2018-06-17T13:49:36.569Z,16.63
2018-06-17T13:52:08.542Z,16.60
2018-06-17T13:54:54.569Z,16.56
2018-06-17T14:09:35.590Z,16.53
2018-06-17T14:12:04.753Z,16.55
2018-06-17T14:14:34.047Z,16.55
2018-06-17T14:32:16.442Z,16.79
2018-06-17T14:34:45.431Z,16.87
2018-06-17T14:37:16.486Z,16.94
2018-06-17T14:49:18.769Z,16.97
2018-06-17T14:56:56.331Z,16.97
2018-06-17T14:59:25.313Z,16.89
2018-06-17T15:01:57.034Z,16.86
2018-06-17T15:04:35.454Z,16.86
2018-06-17T15:07:17.644Z,16.83
2018-06-17T15:09:50.942Z,16.82
2018-06-17T15:12:25.642Z,16.82
2018-06-17T15:15:01.355Z,16.78
2018-06-17T15:17:35.195Z,16.77
2018-06-17T15:20:05.087Z,16.77
2018-06-17T15:22:33.911Z,16.78
2018-06-17T15:25:03.116Z,16.76
2018-06-17T15:27:32.588Z,16.77
2018-06-17T15:30:10.552Z,16.78
2018-06-17T15:32:44.879Z,16.79
2018-06-17T15:35:21.296Z,16.78
2018-06-17T15:37:55.351Z,16.75
2018-06-17T15:40:29.209Z,16.76
2018-06-17T15:42:58.126Z,16.76
2018-06-17T15:54:17.157Z,16.67
2018-06-17T15:56:46.321Z,16.64
2018-06-17T15:59:15.332Z,16.61
2018-06-17T16:04:40.964Z,16.57
2018-06-17T16:25:58.294Z,16.47
2018-06-17T16:28:27.974Z,16.45
2018-06-17T16:30:57.078Z,16.45
2018-06-17T16:33:25.906Z,16.42
2018-06-17T16:35:54.970Z,16.40
2018-06-17T16:47:19.779Z,16.26
2018-06-17T16:49:48.566Z,16.25
2018-06-17T16:52:22.626Z,16.24
2018-06-17T17:03:49.451Z,16.28
2018-06-17T17:06:18.403Z,16.27
2018-06-17T17:08:47.443Z,16.28
2018-06-17T17:11:21.671Z,16.26
2018-06-17T17:22:51.683Z,16.17
2018-06-17T17:25:21.811Z,16.16
2018-06-17T17:27:52.488Z,16.18
2018-06-17T17:42:34.082Z,16.05
2018-06-17T17:45:07.113Z,16.04
2018-06-17T17:47:36.375Z,16.04
2018-06-17T18:05:26.729Z,15.95
2018-06-17T18:07:56.702Z,15.95
2018-06-17T18:10:26.249Z,15.89
2018-06-17T18:25:29.096Z,15.80
2018-06-17T18:28:03.669Z,15.76
2018-06-17T18:30:37.756Z,15.75
2018-06-17T18:51:24.700Z,15.62
2018-06-17T18:53:54.618Z,15.62
2018-06-17T18:56:34.105Z,15.63
2018-06-17T19:08:17.650Z,15.62
2018-06-17T19:12:56.332Z,15.63
2018-06-17T22:34:20.708Z,14.48
2018-06-17T23:26:35.902Z,14.40
2018-06-17T23:51:14.590Z,14.48
